sensor_id;sensor_type;location;lat;lon;timestamp;temperature;humidity
46752;DHT22;32497;48.936;9.270;2024-01-30T00:02:03;3.00;82.80
46752;DHT22;32497;48.936;9.270;2024-01-30T00:07:04;3.00;82.50
46752;DHT22;32497;48.936;9.270;2024-01-30T00:12:06;3.00;82.20
46752;DHT22;32497;48.936;9.270;2024-01-30T00:17:09;2.90;82.30
46752;DHT22;32497;48.936;9.270;2024-01-30T00:22:10;2.90;81.90
46752;DHT22;32497;48.936;9.270;2024-01-30T00:27:11;2.80;82.10
46752;DHT22;32497;48.936;9.270;2024-01-30T00:32:14;2.60;82.40
46752;DHT22;32497;48.936;9.270;2024-01-30T00:37:15;2.60;82.40
46752;DHT22;32497;48.936;9.270;2024-01-30T00:42:16;2.80;82.20
46752;DHT22;32497;48.936;9.270;2024-01-30T00:47:18;3.10;81.00
46752;DHT22;32497;48.936;9.270;2024-01-30T00:52:19;3.10;80.60
46752;DHT22;32497;48.936;9.270;2024-01-30T00:57:20;3.00;80.80
46752;DHT22;32497;48.936;9.270;2024-01-30T01:02:23;3.00;80.80
46752;DHT22;32497;48.936;9.270;2024-01-30T01:07:24;2.90;81.10
46752;DHT22;32497;48.936;9.270;2024-01-30T01:12:25;2.80;81.30
46752;DHT22;32497;48.936;9.270;2024-01-30T01:17:27;2.60;82.00
46752;DHT22;32497;48.936;9.270;2024-01-30T01:22:28;2.50;82.70
46752;DHT22;32497;48.936;9.270;2024-01-30T01:27:29;2.20;83.20
46752;DHT22;32497;48.936;9.270;2024-01-30T01:32:32;2.10;84.00
46752;DHT22;32497;48.936;9.270;2024-01-30T01:37:33;1.90;84.50
46752;DHT22;32497;48.936;9.270;2024-01-30T01:42:34;1.90;84.90
46752;DHT22;32497;48.936;9.270;2024-01-30T01:47:37;1.90;84.80
46752;DHT22;32497;48.936;9.270;2024-01-30T01:52:38;1.80;84.80
46752;DHT22;32497;48.936;9.270;2024-01-30T01:57:41;1.80;85.10
46752;DHT22;32497;48.936;9.270;2024-01-30T02:02:45;1.70;85.30
46752;DHT22;32497;48.936;9.270;2024-01-30T02:07:47;1.60;85.40
46752;DHT22;32497;48.936;9.270;2024-01-30T02:12:48;1.40;85.60
46752;DHT22;32497;48.936;9.270;2024-01-30T02:17:51;1.20;86.20
46752;DHT22;32497;48.936;9.270;2024-01-30T02:22:54;1.20;86.50
46752;DHT22;32497;48.936;9.270;2024-01-30T02:27:56;1.20;86.50
46752;DHT22;32497;48.936;9.270;2024-01-30T02:32:57;1.10;86.70
46752;DHT22;32497;48.936;9.270;2024-01-30T02:38:00;1.10;87.00
46752;DHT22;32497;48.936;9.270;2024-01-30T02:43:02;1.10;87.10
46752;DHT22;32497;48.936;9.270;2024-01-30T02:48:04;1.00;87.20
46752;DHT22;32497;48.936;9.270;2024-01-30T02:53:06;0.90;87.30
46752;DHT22;32497;48.936;9.270;2024-01-30T02:58:07;0.90;87.40
46752;DHT22;32497;48.936;9.270;2024-01-30T03:03:09;0.80;87.40
46752;DHT22;32497;48.936;9.270;2024-01-30T03:08:11;0.70;87.70
46752;DHT22;32497;48.936;9.270;2024-01-30T03:13:12;0.70;88.00
46752;DHT22;32497;48.936;9.270;2024-01-30T03:18:13;0.60;87.80
46752;DHT22;32497;48.936;9.270;2024-01-30T03:23:16;0.60;87.80
46752;DHT22;32497;48.936;9.270;2024-01-30T03:28:17;0.60;88.00
46752;DHT22;32497;48.936;9.270;2024-01-30T03:33:18;0.50;88.10
46752;DHT22;32497;48.936;9.270;2024-01-30T03:38:20;0.40;88.30
46752;DHT22;32497;48.936;9.270;2024-01-30T03:43:21;0.50;88.40
46752;DHT22;32497;48.936;9.270;2024-01-30T03:48:22;0.40;88.50
46752;DHT22;32497;48.936;9.270;2024-01-30T03:53:25;0.50;88.70
46752;DHT22;32497;48.936;9.270;2024-01-30T03:58:26;0.60;88.70
46752;DHT22;32497;48.936;9.270;2024-01-30T04:03:27;0.80;88.10
46752;DHT22;32497;48.936;9.270;2024-01-30T04:08:29;1.10;87.00
46752;DHT22;32497;48.936;9.270;2024-01-30T04:13:30;1.10;86.80
46752;DHT22;32497;48.936;9.270;2024-01-30T04:18:32;1.20;86.30
46752;DHT22;32497;48.936;9.270;2024-01-30T04:23:34;1.10;85.70
46752;DHT22;32497;48.936;9.270;2024-01-30T04:28:35;0.80;86.30
46752;DHT22;32497;48.936;9.270;2024-01-30T04:33:36;0.60;86.80
46752;DHT22;32497;48.936;9.270;2024-01-30T04:38:39;0.50;87.70
46752;DHT22;32497;48.936;9.270;2024-01-30T04:43:40;0.40;87.80
46752;DHT22;32497;48.936;9.270;2024-01-30T04:48:41;0.30;87.90
46752;DHT22;32497;48.936;9.270;2024-01-30T04:53:43;0.40;88.40
46752;DHT22;32497;48.936;9.270;2024-01-30T04:58:44;0.70;88.00
46752;DHT22;32497;48.936;9.270;2024-01-30T05:03:45;0.90;87.00
46752;DHT22;32497;48.936;9.270;2024-01-30T05:08:48;1.10;86.30
46752;DHT22;32497;48.936;9.270;2024-01-30T05:13:52;0.90;86.30
46752;DHT22;32497;48.936;9.270;2024-01-30T05:18:53;0.60;86.60
46752;DHT22;32497;48.936;9.270;2024-01-30T05:23:55;0.40;87.10
46752;DHT22;32497;48.936;9.270;2024-01-30T05:28:57;0.10;87.80
46752;DHT22;32497;48.936;9.270;2024-01-30T05:33:58;0.10;88.50
46752;DHT22;32497;48.936;9.270;2024-01-30T05:39:00;0.00;88.50
46752;DHT22;32497;48.936;9.270;2024-01-30T05:44:02;0.00;88.80
46752;DHT22;32497;48.936;9.270;2024-01-30T05:49:03;0.00;89.10
46752;DHT22;32497;48.936;9.270;2024-01-30T05:54:05;0.00;89.20
46752;DHT22;32497;48.936;9.270;2024-01-30T05:59:06;0.10;89.20
46752;DHT22;32497;48.936;9.270;2024-01-30T06:04:07;0.10;89.30
46752;DHT22;32497;48.936;9.270;2024-01-30T06:09:10;0.00;89.30
46752;DHT22;32497;48.936;9.270;2024-01-30T06:14:11;0.00;89.40
46752;DHT22;32497;48.936;9.270;2024-01-30T06:19:12;0.00;89.40
46752;DHT22;32497;48.936;9.270;2024-01-30T06:24:15;0.10;89.60
46752;DHT22;32497;48.936;9.270;2024-01-30T06:29:16;0.10;89.40
46752;DHT22;32497;48.936;9.270;2024-01-30T06:34:17;0.10;89.30
46752;DHT22;32497;48.936;9.270;2024-01-30T06:39:19;0.20;89.30
46752;DHT22;32497;48.936;9.270;2024-01-30T06:44:20;0.10;89.20
46752;DHT22;32497;48.936;9.270;2024-01-30T06:49:21;0.10;89.20
46752;DHT22;32497;48.936;9.270;2024-01-30T06:54:24;0.10;89.20
46752;DHT22;32497;48.936;9.270;2024-01-30T06:59:25;0.00;89.30
46752;DHT22;32497;48.936;9.270;2024-01-30T07:04:26;0.10;89.30
46752;DHT22;32497;48.936;9.270;2024-01-30T07:09:28;0.10;89.40
46752;DHT22;32497;48.936;9.270;2024-01-30T07:14:30;0.10;89.30
46752;DHT22;32497;48.936;9.270;2024-01-30T07:19:31;0.20;89.40
46752;DHT22;32497;48.936;9.270;2024-01-30T07:24:33;0.30;89.30
46752;DHT22;32497;48.936;9.270;2024-01-30T07:29:34;0.40;89.30
46752;DHT22;32497;48.936;9.270;2024-01-30T07:34:36;0.50;89.20
46752;DHT22;32497;48.936;9.270;2024-01-30T07:39:38;0.60;89.20
46752;DHT22;32497;48.936;9.270;2024-01-30T07:44:39;0.60;88.90
46752;DHT22;32497;48.936;9.270;2024-01-30T07:49:40;0.80;88.40
46752;DHT22;32497;48.936;9.270;2024-01-30T07:54:43;0.90;88.30
46752;DHT22;32497;48.936;9.270;2024-01-30T07:59:44;1.10;87.40
46752;DHT22;32497;48.936;9.270;2024-01-30T08:04:45;1.20;86.80
46752;DHT22;32497;48.936;9.270;2024-01-30T08:09:48;1.40;86.80
46752;DHT22;32497;48.936;9.270;2024-01-30T08:14:49;1.50;86.70
46752;DHT22;32497;48.936;9.270;2024-01-30T08:19:50;1.70;86.50
46752;DHT22;32497;48.936;9.270;2024-01-30T08:24:52;1.90;86.20
46752;DHT22;32497;48.936;9.270;2024-01-30T08:29:53;2.10;85.30
46752;DHT22;32497;48.936;9.270;2024-01-30T08:34:54;2.50;84.80
46752;DHT22;32497;48.936;9.270;2024-01-30T08:39:57;2.70;84.10
46752;DHT22;32497;48.936;9.270;2024-01-30T08:44:58;3.00;83.10
46752;DHT22;32497;48.936;9.270;2024-01-30T08:49:59;3.30;82.50
46752;DHT22;32497;48.936;9.270;2024-01-30T08:55:01;3.60;82.10
46752;DHT22;32497;48.936;9.270;2024-01-30T09:00:03;3.90;80.70
46752;DHT22;32497;48.936;9.270;2024-01-30T09:05:05;4.20;80.10
46752;DHT22;32497;48.936;9.270;2024-01-30T09:10:08;4.40;79.50
46752;DHT22;32497;48.936;9.270;2024-01-30T09:15:09;4.60;78.80
46752;DHT22;32497;48.936;9.270;2024-01-30T09:20:11;4.90;77.90
46752;DHT22;32497;48.936;9.270;2024-01-30T09:25:13;5.20;77.60
46752;DHT22;32497;48.936;9.270;2024-01-30T09:30:15;5.70;77.40
46752;DHT22;32497;48.936;9.270;2024-01-30T09:35:16;6.00;76.40
46752;DHT22;32497;48.936;9.270;2024-01-30T09:40:19;6.20;75.70
46752;DHT22;32497;48.936;9.270;2024-01-30T09:45:24;6.50;74.10
46752;DHT22;32497;48.936;9.270;2024-01-30T09:50:25;6.80;73.30
46752;DHT22;32497;48.936;9.270;2024-01-30T09:55:28;6.90;73.00
46752;DHT22;32497;48.936;9.270;2024-01-30T10:00:29;7.00;74.00
46752;DHT22;32497;48.936;9.270;2024-01-30T10:05:31;7.40;73.40
46752;DHT22;32497;48.936;9.270;2024-01-30T10:10:35;7.70;71.80
46752;DHT22;32497;48.936;9.270;2024-01-30T10:15:38;8.10;71.20
46752;DHT22;32497;48.936;9.270;2024-01-30T10:20:39;8.50;69.60
46752;DHT22;32497;48.936;9.270;2024-01-30T10:25:41;8.90;68.10
46752;DHT22;32497;48.936;9.270;2024-01-30T10:30:42;9.20;67.20
46752;DHT22;32497;48.936;9.270;2024-01-30T10:35:44;9.50;65.80
46752;DHT22;32497;48.936;9.270;2024-01-30T10:40:48;9.70;64.70
46752;DHT22;32497;48.936;9.270;2024-01-30T10:45:53;9.70;66.40
46752;DHT22;32497;48.936;9.270;2024-01-30T10:50:56;9.80;66.30
46752;DHT22;32497;48.936;9.270;2024-01-30T10:56:01;9.80;66.30
46752;DHT22;32497;48.936;9.270;2024-01-30T11:01:03;9.90;66.60
46752;DHT22;32497;48.936;9.270;2024-01-30T11:06:05;10.20;66.30
46752;DHT22;32497;48.936;9.270;2024-01-30T11:11:12;10.30;66.40
46752;DHT22;32497;48.936;9.270;2024-01-30T11:16:13;10.50;64.70
46752;DHT22;32497;48.936;9.270;2024-01-30T11:21:14;10.90;62.70
46752;DHT22;32497;48.936;9.270;2024-01-30T11:26:17;11.20;60.30
46752;DHT22;32497;48.936;9.270;2024-01-30T11:31:19;11.60;58.40
46752;DHT22;32497;48.936;9.270;2024-01-30T11:36:25;11.60;57.00
46752;DHT22;32497;48.936;9.270;2024-01-30T11:41:28;11.70;57.50
46752;DHT22;32497;48.936;9.270;2024-01-30T11:46:30;11.80;55.00
46752;DHT22;32497;48.936;9.270;2024-01-30T11:51:31;12.10;54.60
46752;DHT22;32497;48.936;9.270;2024-01-30T11:56:34;12.30;53.60
46752;DHT22;32497;48.936;9.270;2024-01-30T12:01:35;12.40;53.20
46752;DHT22;32497;48.936;9.270;2024-01-30T12:06:37;12.60;51.00
46752;DHT22;32497;48.936;9.270;2024-01-30T12:11:45;12.30;52.20
46752;DHT22;32497;48.936;9.270;2024-01-30T12:16:48;12.20;53.60
46752;DHT22;32497;48.936;9.270;2024-01-30T12:21:54;12.10;52.20
46752;DHT22;32497;48.936;9.270;2024-01-30T12:26:58;12.20;52.80
46752;DHT22;32497;48.936;9.270;2024-01-30T12:32:00;12.40;53.20
46752;DHT22;32497;48.936;9.270;2024-01-30T12:37:01;12.60;52.10
46752;DHT22;32497;48.936;9.270;2024-01-30T12:42:04;12.80;51.50
46752;DHT22;32497;48.936;9.270;2024-01-30T12:47:06;12.40;56.80
46752;DHT22;32497;48.936;9.270;2024-01-30T12:52:07;12.40;56.90
46752;DHT22;32497;48.936;9.270;2024-01-30T12:57:09;12.20;58.10
46752;DHT22;32497;48.936;9.270;2024-01-30T13:02:11;12.30;58.60
46752;DHT22;32497;48.936;9.270;2024-01-30T13:07:13;12.70;56.40
46752;DHT22;32497;48.936;9.270;2024-01-30T13:12:15;13.00;55.40
46752;DHT22;32497;48.936;9.270;2024-01-30T13:17:16;13.30;53.70
46752;DHT22;32497;48.936;9.270;2024-01-30T13:22:17;13.70;54.30
46752;DHT22;32497;48.936;9.270;2024-01-30T13:27:20;13.90;53.90
46752;DHT22;32497;48.936;9.270;2024-01-30T13:32:21;15.00;50.30
46752;DHT22;32497;48.936;9.270;2024-01-30T13:37:23;15.20;49.70
46752;DHT22;32497;48.936;9.270;2024-01-30T13:42:25;15.20;49.40
46752;DHT22;32497;48.936;9.270;2024-01-30T13:47:26;15.20;49.80
46752;DHT22;32497;48.936;9.270;2024-01-30T13:52:27;14.70;48.90
46752;DHT22;32497;48.936;9.270;2024-01-30T13:57:30;14.10;50.60
46752;DHT22;32497;48.936;9.270;2024-01-30T14:02:31;13.90;51.00
46752;DHT22;32497;48.936;9.270;2024-01-30T14:07:32;13.90;52.00
46752;DHT22;32497;48.936;9.270;2024-01-30T14:12:34;13.50;53.90
46752;DHT22;32497;48.936;9.270;2024-01-30T14:17:36;12.80;54.90
46752;DHT22;32497;48.936;9.270;2024-01-30T14:22:37;12.70;53.90
46752;DHT22;32497;48.936;9.270;2024-01-30T14:27:39;12.40;56.30
46752;DHT22;32497;48.936;9.270;2024-01-30T14:32:40;12.20;58.70
46752;DHT22;32497;48.936;9.270;2024-01-30T14:37:42;12.10;59.30
46752;DHT22;32497;48.936;9.270;2024-01-30T14:42:45;11.80;59.90
46752;DHT22;32497;48.936;9.270;2024-01-30T14:47:47;11.70;59.60
46752;DHT22;32497;48.936;9.270;2024-01-30T14:52:48;11.40;59.90
46752;DHT22;32497;48.936;9.270;2024-01-30T14:57:50;11.20;61.90
46752;DHT22;32497;48.936;9.270;2024-01-30T15:02:52;10.90;63.50
46752;DHT22;32497;48.936;9.270;2024-01-30T15:07:53;10.70;64.00
46752;DHT22;32497;48.936;9.270;2024-01-30T15:12:55;10.50;65.30
46752;DHT22;32497;48.936;9.270;2024-01-30T15:17:56;10.20;66.20
46752;DHT22;32497;48.936;9.270;2024-01-30T15:22:57;9.90;67.60
46752;DHT22;32497;48.936;9.270;2024-01-30T15:28:00;9.70;67.80
46752;DHT22;32497;48.936;9.270;2024-01-30T15:33:01;9.60;68.30
46752;DHT22;32497;48.936;9.270;2024-01-30T15:38:02;9.50;68.90
46752;DHT22;32497;48.936;9.270;2024-01-30T15:43:04;9.40;69.00
46752;DHT22;32497;48.936;9.270;2024-01-30T15:48:06;9.20;70.10
46752;DHT22;32497;48.936;9.270;2024-01-30T15:53:07;9.00;70.40
46752;DHT22;32497;48.936;9.270;2024-01-30T15:58:10;9.00;72.20
46752;DHT22;32497;48.936;9.270;2024-01-30T16:03:11;8.80;72.60
46752;DHT22;32497;48.936;9.270;2024-01-30T16:08:12;8.70;72.10
46752;DHT22;32497;48.936;9.270;2024-01-30T16:13:15;8.60;72.70
46752;DHT22;32497;48.936;9.270;2024-01-30T16:18:16;8.50;72.60
46752;DHT22;32497;48.936;9.270;2024-01-30T16:23:17;8.30;72.80
46752;DHT22;32497;48.936;9.270;2024-01-30T16:28:23;8.20;74.20
46752;DHT22;32497;48.936;9.270;2024-01-30T16:33:25;8.10;75.00
46752;DHT22;32497;48.936;9.270;2024-01-30T16:38:26;8.00;75.70
46752;DHT22;32497;48.936;9.270;2024-01-30T16:43:28;8.00;75.50
46752;DHT22;32497;48.936;9.270;2024-01-30T16:48:29;8.10;75.40
46752;DHT22;32497;48.936;9.270;2024-01-30T16:53:30;8.10;75.60
46752;DHT22;32497;48.936;9.270;2024-01-30T16:58:33;8.10;74.30
46752;DHT22;32497;48.936;9.270;2024-01-30T17:03:34;8.10;73.40
46752;DHT22;32497;48.936;9.270;2024-01-30T17:08:35;8.20;71.80
46752;DHT22;32497;48.936;9.270;2024-01-30T17:13:38;8.40;69.90
46752;DHT22;32497;48.936;9.270;2024-01-30T17:18:39;8.60;67.90
46752;DHT22;32497;48.936;9.270;2024-01-30T17:23:40;8.60;69.00
46752;DHT22;32497;48.936;9.270;2024-01-30T17:28:42;8.50;68.10
46752;DHT22;32497;48.936;9.270;2024-01-30T17:33:43;8.50;68.50
46752;DHT22;32497;48.936;9.270;2024-01-30T17:38:44;8.50;68.20
46752;DHT22;32497;48.936;9.270;2024-01-30T17:43:47;8.50;67.70
46752;DHT22;32497;48.936;9.270;2024-01-30T17:48:48;8.40;67.90
46752;DHT22;32497;48.936;9.270;2024-01-30T17:53:49;8.50;68.10
46752;DHT22;32497;48.936;9.270;2024-01-30T17:58:51;8.40;69.20
46752;DHT22;32497;48.936;9.270;2024-01-30T18:03:53;8.30;70.00
46752;DHT22;32497;48.936;9.270;2024-01-30T18:08:54;8.20;71.40
46752;DHT22;32497;48.936;9.270;2024-01-30T18:13:56;8.10;72.00
46752;DHT22;32497;48.936;9.270;2024-01-30T18:18:57;7.90;72.90
46752;DHT22;32497;48.936;9.270;2024-01-30T18:23:58;7.90;73.40
46752;DHT22;32497;48.936;9.270;2024-01-30T18:29:01;7.80;73.90
46752;DHT22;32497;48.936;9.270;2024-01-30T18:34:02;7.80;74.20
46752;DHT22;32497;48.936;9.270;2024-01-30T18:39:03;7.70;74.20
46752;DHT22;32497;48.936;9.270;2024-01-30T18:44:06;7.80;74.20
46752;DHT22;32497;48.936;9.270;2024-01-30T18:49:07;7.70;74.10
46752;DHT22;32497;48.936;9.270;2024-01-30T18:54:08;7.80;73.80
46752;DHT22;32497;48.936;9.270;2024-01-30T18:59:10;7.90;73.60
46752;DHT22;32497;48.936;9.270;2024-01-30T19:04:11;7.90;73.90
46752;DHT22;32497;48.936;9.270;2024-01-30T19:09:13;7.90;73.90
46752;DHT22;32497;48.936;9.270;2024-01-30T19:14:15;7.90;74.00
46752;DHT22;32497;48.936;9.270;2024-01-30T19:19:16;7.90;73.90
46752;DHT22;32497;48.936;9.270;2024-01-30T19:24:17;8.00;73.90
46752;DHT22;32497;48.936;9.270;2024-01-30T19:29:20;8.00;73.60
46752;DHT22;32497;48.936;9.270;2024-01-30T19:34:21;8.00;73.60
46752;DHT22;32497;48.936;9.270;2024-01-30T19:39:22;8.10;73.50
46752;DHT22;32497;48.936;9.270;2024-01-30T19:44:24;8.10;73.20
46752;DHT22;32497;48.936;9.270;2024-01-30T19:49:25;8.10;73.40
46752;DHT22;32497;48.936;9.270;2024-01-30T19:54:26;8.10;73.90
46752;DHT22;32497;48.936;9.270;2024-01-30T19:59:29;8.10;73.70
46752;DHT22;32497;48.936;9.270;2024-01-30T20:04:30;8.00;74.20
46752;DHT22;32497;48.936;9.270;2024-01-30T20:09:31;7.90;74.60
46752;DHT22;32497;48.936;9.270;2024-01-30T20:14:34;7.90;75.00
46752;DHT22;32497;48.936;9.270;2024-01-30T20:19:35;7.80;75.30
46752;DHT22;32497;48.936;9.270;2024-01-30T20:24:36;7.80;75.10
46752;DHT22;32497;48.936;9.270;2024-01-30T20:29:38;7.70;76.10
46752;DHT22;32497;48.936;9.270;2024-01-30T20:34:40;7.50;77.20
46752;DHT22;32497;48.936;9.270;2024-01-30T20:39:41;7.40;77.60
46752;DHT22;32497;48.936;9.270;2024-01-30T20:44:43;7.40;77.60
46752;DHT22;32497;48.936;9.270;2024-01-30T20:49:45;7.50;77.40
46752;DHT22;32497;48.936;9.270;2024-01-30T20:54:46;7.60;77.10
46752;DHT22;32497;48.936;9.270;2024-01-30T20:59:48;7.60;77.20
46752;DHT22;32497;48.936;9.270;2024-01-30T21:04:49;7.60;76.30
46752;DHT22;32497;48.936;9.270;2024-01-30T21:09:51;7.70;75.70
46752;DHT22;32497;48.936;9.270;2024-01-30T21:14:53;7.90;75.60
46752;DHT22;32497;48.936;9.270;2024-01-30T21:19:54;8.10;74.60
46752;DHT22;32497;48.936;9.270;2024-01-30T21:24:55;8.20;74.50
46752;DHT22;32497;48.936;9.270;2024-01-30T21:29:58;8.20;74.80
46752;DHT22;32497;48.936;9.270;2024-01-30T21:34:59;8.10;75.40
46752;DHT22;32497;48.936;9.270;2024-01-30T21:40:00;8.00;75.60
46752;DHT22;32497;48.936;9.270;2024-01-30T21:45:03;7.80;76.50
46752;DHT22;32497;48.936;9.270;2024-01-30T21:50:05;7.80;75.70
46752;DHT22;32497;48.936;9.270;2024-01-30T21:55:08;8.00;75.30
46752;DHT22;32497;48.936;9.270;2024-01-30T22:00:12;8.10;75.60
46752;DHT22;32497;48.936;9.270;2024-01-30T22:05:13;8.10;76.00
46752;DHT22;32497;48.936;9.270;2024-01-30T22:10:14;8.10;76.40
46752;DHT22;32497;48.936;9.270;2024-01-30T22:15:17;8.20;76.20
46752;DHT22;32497;48.936;9.270;2024-01-30T22:20:18;8.20;76.00
46752;DHT22;32497;48.936;9.270;2024-01-30T22:25:19;8.20;75.80
46752;DHT22;32497;48.936;9.270;2024-01-30T22:30:22;8.40;75.80
46752;DHT22;32497;48.936;9.270;2024-01-30T22:35:23;8.40;75.60
46752;DHT22;32497;48.936;9.270;2024-01-30T22:40:24;8.40;75.20
46752;DHT22;32497;48.936;9.270;2024-01-30T22:45:26;8.40;75.20
46752;DHT22;32497;48.936;9.270;2024-01-30T22:50:27;8.40;75.20
46752;DHT22;32497;48.936;9.270;2024-01-30T22:55:28;8.40;75.40
46752;DHT22;32497;48.936;9.270;2024-01-30T23:00:31;8.50;75.70
46752;DHT22;32497;48.936;9.270;2024-01-30T23:05:32;8.50;75.80
46752;DHT22;32497;48.936;9.270;2024-01-30T23:10:33;8.60;75.70
46752;DHT22;32497;48.936;9.270;2024-01-30T23:15:35;8.60;75.90
46752;DHT22;32497;48.936;9.270;2024-01-30T23:20:36;8.60;75.40
46752;DHT22;32497;48.936;9.270;2024-01-30T23:25:38;8.60;75.60
46752;DHT22;32497;48.936;9.270;2024-01-30T23:30:42;8.60;76.00
46752;DHT22;32497;48.936;9.270;2024-01-30T23:35:43;8.50;75.90
46752;DHT22;32497;48.936;9.270;2024-01-30T23:40:44;8.40;76.30
46752;DHT22;32497;48.936;9.270;2024-01-30T23:45:46;8.40;76.30
46752;DHT22;32497;48.936;9.270;2024-01-30T23:50:47;8.30;76.60
46752;DHT22;32497;48.936;9.270;2024-01-30T23:55:48;8.20;77.00
